Time;durP1;ratioP1;P1;durP2;ratioP2;P2;SDS_P1;SDS_P2;PMS_P1;PMS_P2;Temp;Humidity;BMP_temperature;BMP_pressure;BME280_temperature;BME280_humidity;BME280_pressure;Samples;Min_cycle;Max_cycle;Signal;HPM_P1;HPM_P2
2022/01/19 00:01:50;;;;;;;75.22;35.15;;;;;;;-2.30;100.00;99718.66;5053895;28;20166;-75
2022/01/19 00:04:15;;;;;;;74.07;34.17;;;;;;;-2.35;100.00;99721.00;5053030;28;20386;-75
2022/01/19 00:06:41;;;;;;;75.90;33.83;;;;;;;-2.38;100.00;99718.66;5054394;28;20036;-74
2022/01/19 00:09:06;;;;;;;74.57;35.67;;;;;;;-2.43;100.00;99731.75;5054546;28;20037;-75
2022/01/19 00:11:31;;;;;;;71.15;35.60;;;;;;;-2.62;100.00;99728.56;5054682;28;20040;-74
2022/01/19 00:13:57;;;;;;;77.03;35.13;;;;;;;-2.64;100.00;99731.41;5054343;28;20039;-76
2022/01/19 00:16:22;;;;;;;70.43;33.95;;;;;;;-2.56;100.00;99736.75;5052694;28;20064;-74
2022/01/19 00:18:48;;;;;;;66.63;33.65;;;;;;;-2.56;100.00;99742.13;5054183;28;20044;-75
2022/01/19 00:21:13;;;;;;;70.90;34.22;;;;;;;-2.55;100.00;99743.81;5055388;28;20025;-80
2022/01/19 00:23:38;;;;;;;68.82;33.08;;;;;;;-2.47;100.00;99735.75;5054087;28;20025;-74
2022/01/19 00:26:04;;;;;;;65.25;33.45;;;;;;;-2.50;100.00;99737.94;5052660;28;20057;-76
2022/01/19 00:28:29;;;;;;;81.65;36.10;;;;;;;-2.51;100.00;99737.13;5051259;28;20116;-75
2022/01/19 00:30:55;;;;;;;70.88;35.25;;;;;;;-2.61;100.00;99725.72;5052495;28;20025;-75
2022/01/19 00:33:20;;;;;;;68.90;34.03;;;;;;;-2.56;100.00;99736.75;5053664;28;20071;-75
2022/01/19 00:35:50;;;;;;;63.28;31.67;;;;;;;-2.55;100.00;99738.44;5052514;28;20025;-75
2022/01/19 00:38:16;;;;;;;74.28;34.65;;;;;;;-2.54;100.00;99734.78;5053411;28;20465;-75
2022/01/19 00:40:43;;;;;;;73.85;34.40;;;;;;;-2.57;100.00;99740.47;5053518;28;20386;-76
2022/01/19 00:43:08;;;;;;;66.22;32.92;;;;;;;-2.63;100.00;99751.81;5052279;28;20025;-75
2022/01/19 00:45:34;;;;;;;72.60;35.47;;;;;;;-2.65;100.00;99737.78;5053528;28;20033;-75
2022/01/19 00:48:00;;;;;;;71.75;33.15;;;;;;;-2.55;100.00;99733.09;5052269;28;20041;-75
2022/01/19 00:50:28;;;;;;;67.10;33.70;;;;;;;-2.52;100.00;99727.41;5053735;28;20033;-75
2022/01/19 00:52:54;;;;;;;63.25;31.80;;;;;;;-2.64;100.00;99731.41;5052876;28;20021;-75
2022/01/19 00:55:22;;;;;;;73.10;34.47;;;;;;;-2.61;100.00;99743.63;5052655;28;20520;-76
2022/01/19 00:57:48;;;;;;;70.40;33.55;;;;;;;-2.59;100.00;99737.09;5052770;28;20025;-75
2022/01/19 01:00:17;;;;;;;68.85;32.80;;;;;;;-2.74;100.00;99725.38;5052585;28;20086;-75
2022/01/19 01:02:42;;;;;;;75.13;35.15;;;;;;;-2.74;100.00;99728.06;5052594;28;20108;-75
2022/01/19 01:05:08;;;;;;;62.95;33.33;;;;;;;-2.66;100.00;99730.72;5051472;28;20171;-78
2022/01/19 01:07:38;;;;;;;66.68;32.58;;;;;;;-2.77;100.00;99729.25;5053030;28;20040;-75
2022/01/19 01:10:03;;;;;;;70.97;34.15;;;;;;;-2.75;100.00;99715.66;5051711;28;20029;-75
2022/01/19 01:12:43;;;;;;;60.28;32.08;;;;;;;-2.87;100.00;99714.34;5052907;28;20033;-75
2022/01/19 01:15:29;;;;;;;72.22;33.55;;;;;;;-2.82;100.00;99717.38;5051671;28;20021;-75
2022/01/19 01:20:36;;;;;;;67.93;32.95;;;;;;;-2.89;100.00;99706.47;5052608;28;20037;-76
2022/01/19 01:23:04;;;;;;;70.25;34.75;;;;;;;-2.82;100.00;99707.47;5052622;28;20056;-76
2022/01/19 01:25:29;;;;;;;71.03;34.28;;;;;;;-2.82;100.00;99699.44;5051782;28;20032;-77
2022/01/19 01:27:55;;;;;;;65.00;33.50;;;;;;;-2.78;100.00;99699.94;5052860;28;20025;-75
2022/01/19 01:30:20;;;;;;;65.13;32.13;;;;;;;-2.79;100.00;99700.97;5052811;28;20033;-77
2022/01/19 01:32:46;;;;;;;74.32;32.47;;;;;;;-2.73;100.00;99713.69;5052644;28;20017;-75
2022/01/19 01:35:12;;;;;;;70.68;34.30;;;;;;;-2.79;100.00;99722.38;5052663;28;20025;-75
2022/01/19 01:37:37;;;;;;;66.03;33.53;;;;;;;-2.82;100.00;99730.75;5052371;28;20059;-74
2022/01/19 01:40:05;;;;;;;68.78;34.17;;;;;;;-2.79;100.00;99735.78;5052389;28;20029;-75
2022/01/19 01:42:30;;;;;;;75.45;34.60;;;;;;;-2.78;100.00;99727.56;5051169;28;20060;-75
2022/01/19 01:44:59;;;;;;;72.38;33.28;;;;;;;-2.84;100.00;99714.00;5053706;28;20120;-75
2022/01/19 01:47:26;;;;;;;76.40;36.92;;;;;;;-2.88;100.00;99705.47;5052824;28;20064;-76
2022/01/19 01:55:15;;;;;;;70.25;32.05;;;;;;;-2.93;100.00;99685.56;5052182;28;20051;-75
2022/01/19 01:57:41;;;;;;;75.47;33.78;;;;;;;-2.87;100.00;99680.38;5053191;28;20035;-76
2022/01/19 02:00:09;;;;;;;67.30;33.42;;;;;;;-2.90;100.00;99674.53;5055811;28;20033;-75
2022/01/19 02:02:35;;;;;;;68.82;33.55;;;;;;;-2.94;100.00;99673.16;5053058;28;20024;-76
2022/01/19 02:05:00;;;;;;;64.47;33.03;;;;;;;-2.89;100.00;99676.19;5052754;28;20386;-76
2022/01/19 02:09:55;;;;;;;62.47;32.13;;;;;;;-2.88;100.00;99667.19;5052377;28;20048;-75
2022/01/19 02:23:36;;;;;;;60.72;30.27;;;;;;;-3.04;100.00;99651.13;5051624;28;20048;-75
2022/01/19 02:26:06;;;;;;;58.35;29.25;;;;;;;-3.02;100.00;99643.75;5051787;28;20033;-75
2022/01/19 02:31:49;;;;;;;57.72;28.20;;;;;;;-3.09;100.00;99637.38;5050049;28;20150;-74
2022/01/19 02:42:30;;;;;;;66.35;30.70;;;;;;;-3.19;100.00;99632.19;5032543;28;20556;-75
2022/01/19 02:49:50;;;;;;;62.22;31.23;;;;;;;-3.34;100.00;99613.31;5030697;28;20046;-76
2022/01/19 02:52:17;;;;;;;58.78;29.73;;;;;;;-3.33;100.00;99617.66;5031519;28;20035;-75
2022/01/19 02:54:43;;;;;;;61.70;28.92;;;;;;;-3.35;100.00;99622.31;5030828;28;20080;-77
2022/01/19 02:57:11;;;;;;;56.10;30.35;;;;;;;-3.29;100.00;99620.84;5031337;28;20030;-76
2022/01/19 03:10:12;;;;;;;59.50;28.90;;;;;;;-3.50;100.00;99602.59;5029886;28;20044;-73
2022/01/19 03:12:37;;;;;;;61.05;29.38;;;;;;;-3.51;100.00;99589.41;5029727;28;20479;-75
2022/01/19 03:15:03;;;;;;;56.90;29.70;;;;;;;-3.55;100.00;99590.72;5030995;28;20213;-76
2022/01/19 03:17:29;;;;;;;64.60;31.15;;;;;;;-3.60;100.00;99593.88;5031018;28;20044;-75
2022/01/19 03:19:54;;;;;;;59.20;30.35;;;;;;;-3.49;100.00;99598.91;5031408;28;20033;-75
2022/01/19 03:22:25;;;;;;;70.45;31.92;;;;;;;-3.52;100.00;99599.25;5030760;28;20025;-75
2022/01/19 03:24:52;;;;;;;63.17;30.80;;;;;;;-3.43;100.00;99598.25;5029423;28;20126;-77
2022/01/19 03:27:18;;;;;;;57.83;28.98;;;;;;;-3.37;100.00;99592.25;5029526;28;20033;-76
2022/01/19 03:29:44;;;;;;;57.97;30.50;;;;;;;-3.26;100.00;99593.75;5030548;28;20033;-76
2022/01/19 03:32:10;;;;;;;79.55;36.88;;;;;;;-3.33;100.00;99590.06;5030655;28;20033;-77
2022/01/19 03:34:36;;;;;;;90.60;36.00;;;;;;;-3.43;100.00;99590.22;5030325;28;20132;-77
2022/01/19 03:37:03;;;;;;;83.78;38.85;;;;;;;-3.35;100.00;99592.91;5030809;28;20039;-74
2022/01/19 03:39:28;;;;;;;74.75;36.30;;;;;;;-3.18;100.00;99585.72;5029323;28;20041;-75
2022/01/19 03:41:54;;;;;;;95.65;37.95;;;;;;;-3.13;100.00;99587.91;5030691;28;20021;-74
2022/01/19 03:44:20;;;;;;;108.70;42.22;;;;;;;-3.15;100.00;99587.22;5029408;28;20048;-74
2022/01/19 03:47:00;;;;;;;82.18;37.20;;;;;;;-3.15;100.00;99585.38;5030713;28;20029;-75
2022/01/19 03:49:28;;;;;;;91.55;38.40;;;;;;;-2.99;100.00;99581.88;5030782;28;20065;-75
2022/01/19 03:51:59;;;;;;;92.55;34.85;;;;;;;-2.88;100.00;99584.22;5030812;28;20029;-75
2022/01/19 03:54:26;;;;;;;69.72;34.03;;;;;;;-2.85;100.00;99583.88;5028898;28;20375;-75
2022/01/19 03:56:52;;;;;;;82.75;37.38;;;;;;;-2.87;100.00;99577.81;5031341;28;20041;-75
2022/01/19 03:59:17;;;;;;;70.55;33.10;;;;;;;-2.75;100.00;99577.31;5033425;28;20372;-78
2022/01/19 04:01:43;;;;;;;81.55;36.42;;;;;;;-2.81;100.00;99585.19;5033115;28;20033;-77
2022/01/19 04:04:32;;;;;;;86.57;36.35;;;;;;;-2.80;100.00;99584.19;5030363;28;20022;-76
2022/01/19 04:07:09;;;;;;;81.53;37.22;;;;;;;-2.79;100.00;99580.50;5049775;28;20040;-75
2022/01/19 04:09:36;;;;;;;107.50;40.15;;;;;;;-2.77;100.00;99573.13;5060172;28;20025;-75
2022/01/19 04:12:03;;;;;;;90.07;37.28;;;;;;;-2.81;100.00;99571.78;5050309;28;20024;-76
2022/01/19 04:14:28;;;;;;;83.72;37.40;;;;;;;-2.87;100.00;99567.97;5050465;28;20027;-76
2022/01/19 04:17:02;;;;;;;113.15;40.45;;;;;;;-2.85;100.00;99573.97;5050349;28;20017;-76
2022/01/19 04:19:34;;;;;;;130.05;41.97;;;;;;;-2.76;100.00;99570.25;5049837;28;20029;-74
2022/01/19 04:22:05;;;;;;;144.40;41.53;;;;;;;-2.77;100.00;99567.78;5050315;28;20025;-76
2022/01/19 04:24:31;;;;;;;158.82;43.05;;;;;;;-2.87;100.00;99559.94;5049920;28;20032;-74
2022/01/19 04:29:56;;;;;;;120.70;43.70;;;;;;;-2.91;100.00;99560.44;5049841;28;20021;-74
2022/01/19 04:32:30;;;;;;;117.18;42.83;;;;;;;-2.90;100.00;99556.75;5032759;28;20079;-77
2022/01/19 04:34:56;;;;;;;162.52;40.40;;;;;;;-2.86;100.00;99548.22;5049985;28;20117;-74
2022/01/19 04:37:33;;;;;;;145.00;44.83;;;;;;;-2.86;100.00;99545.56;5050307;28;20522;-75
2022/01/19 04:48:13;;;;;;;132.68;46.53;;;;;;;-2.48;100.00;99541.25;5053919;28;20107;-76
2022/01/19 05:01:59;;;;;;;166.90;45.10;;;;;;;-2.66;100.00;99532.59;5053576;28;20040;-76
2022/01/19 05:04:47;;;;;;;146.88;48.33;;;;;;;-2.72;100.00;99531.44;5052363;28;20095;-74
2022/01/19 05:07:22;;;;;;;181.50;47.63;;;;;;;-2.76;100.00;99521.28;5053554;28;20044;-77
2022/01/19 05:15:01;;;;;;;330.75;50.45;;;;;;;-2.85;100.00;99528.47;5054403;28;20398;-76
2022/01/19 05:17:26;;;;;;;154.35;40.40;;;;;;;-2.69;100.00;99519.56;5055639;28;20029;-77
2022/01/19 05:19:52;;;;;;;150.60;44.17;;;;;;;-2.59;100.00;99516.69;5054037;28;20040;-76
2022/01/19 05:22:17;;;;;;;236.48;45.55;;;;;;;-2.60;100.00;99515.84;5052492;28;20017;-77
2022/01/19 05:24:43;;;;;;;140.90;44.67;;;;;;;-2.56;100.00;99511.81;5053388;28;20048;-78
2022/01/19 05:27:08;;;;;;;185.85;47.92;;;;;;;-2.56;100.00;99522.53;5053357;28;20026;-79
2022/01/19 05:29:33;;;;;;;155.68;44.35;;;;;;;-2.57;100.00;99520.03;5052891;28;20462;-75
2022/01/19 05:31:59;;;;;;;171.80;49.50;;;;;;;-2.53;100.00;99518.66;5052591;28;20029;-76
2022/01/19 05:34:24;;;;;;;213.10;48.65;;;;;;;-2.50;100.00;99519.16;5052910;28;20025;-77
2022/01/19 05:36:51;;;;;;;244.50;47.92;;;;;;;-2.46;100.00;99511.63;5052818;28;20025;-76
2022/01/19 05:39:16;;;;;;;154.85;43.70;;;;;;;-2.44;100.00;99515.78;5051191;28;20029;-75
2022/01/19 05:41:41;;;;;;;132.00;40.90;;;;;;;-2.35;100.00;99509.38;5052821;28;20033;-77
2022/01/19 05:44:06;;;;;;;131.65;40.90;;;;;;;-2.43;100.00;99500.56;5052507;28;20033;-76
2022/01/19 05:46:33;;;;;;;188.10;42.40;;;;;;;-2.53;100.00;99506.13;5052695;28;20090;-76
2022/01/19 05:48:58;;;;;;;151.43;43.28;;;;;;;-2.49;100.00;99510.13;5052377;28;20485;-76
2022/01/19 05:51:23;;;;;;;139.70;41.50;;;;;;;-2.44;100.00;99512.25;5053059;28;20087;-76
2022/01/19 05:53:49;;;;;;;124.05;41.97;;;;;;;-2.38;100.00;99509.72;5042957;28;20029;-76
2022/01/19 05:56:14;;;;;;;144.90;43.00;;;;;;;-2.48;100.00;99506.44;5031567;28;20054;-74
2022/01/19 05:58:39;;;;;;;272.45;46.83;;;;;;;-2.59;100.00;99506.81;5032557;28;20030;-76
2022/01/19 06:01:05;;;;;;;319.58;51.47;;;;;;;-2.54;100.00;99507.16;5032204;28;20104;-75
2022/01/19 06:03:30;;;;;;;132.27;42.17;;;;;;;-2.49;100.00;99517.31;5032435;28;20060;-76
2022/01/19 06:05:55;;;;;;;202.80;45.85;;;;;;;-2.60;100.00;99512.34;5031110;28;20484;-74
2022/01/19 06:10:54;;;;;;;212.25;43.80;;;;;;;-2.75;100.00;99496.16;5058688;28;20123;-75
2022/01/19 06:13:20;;;;;;;351.45;57.00;;;;;;;-2.71;100.00;99497.50;5057234;28;20103;-76
2022/01/19 06:15:46;;;;;;;188.30;48.33;;;;;;;-2.68;100.00;99489.09;5063094;28;20052;-76
2022/01/19 06:18:12;;;;;;;241.35;50.28;;;;;;;-2.59;100.00;99485.38;5059756;28;20025;-74
2022/01/19 06:20:38;;;;;;;247.48;51.03;;;;;;;-2.59;100.00;99480.03;5053514;28;20024;-75
2022/01/19 06:23:04;;;;;;;245.55;50.20;;;;;;;-2.54;100.00;99472.34;5051479;28;20115;-75
2022/01/19 06:25:29;;;;;;;241.95;52.80;;;;;;;-2.68;100.00;99470.38;5055049;28;20097;-78
2022/01/19 06:27:55;;;;;;;155.80;55.05;;;;;;;-2.73;100.00;99468.22;5056797;28;20029;-79
2022/01/19 06:30:20;;;;;;;240.48;59.38;;;;;;;-2.60;100.00;99470.31;5055538;28;20028;-81
2022/01/19 06:32:46;;;;;;;165.77;55.78;;;;;;;-2.48;100.00;99477.00;5056913;28;20024;-81
2022/01/19 06:35:11;;;;;;;278.65;56.05;;;;;;;-2.58;100.00;99487.06;5053807;28;20040;-75
2022/01/19 06:37:37;;;;;;;246.75;53.53;;;;;;;-2.55;100.00;99476.00;5051886;28;20393;-75
2022/01/19 06:40:05;;;;;;;225.15;53.35;;;;;;;-2.49;100.00;99475.31;5050373;28;20033;-75
2022/01/19 06:42:31;;;;;;;147.77;50.70;;;;;;;-2.47;100.00;99475.97;5051406;28;20029;-75
2022/01/19 06:44:56;;;;;;;133.60;48.17;;;;;;;-2.46;100.00;99479.47;5052047;28;20059;-75
2022/01/19 06:47:21;;;;;;;147.77;50.28;;;;;;;-2.37;100.00;99473.91;5050116;28;20064;-75
2022/01/19 06:49:47;;;;;;;138.98;49.00;;;;;;;-2.28;100.00;99472.00;5042433;28;20382;-74
2022/01/19 06:52:12;;;;;;;123.72;49.30;;;;;;;-2.29;100.00;99468.50;5031537;28;20018;-73
2022/01/19 06:54:38;;;;;;;115.05;46.88;;;;;;;-2.35;100.00;99457.66;5041394;28;20144;-74
2022/01/19 06:57:03;;;;;;;132.27;46.78;;;;;;;-2.48;100.00;99466.28;5049466;28;20056;-75
2022/01/19 06:59:29;;;;;;;123.28;44.80;;;;;;;-2.59;100.00;99466.66;5051565;28;20037;-76
2022/01/19 07:01:54;;;;;;;102.28;42.63;;;;;;;-2.43;100.00;99461.22;5050374;28;20534;-77
2022/01/19 07:04:20;;;;;;;109.68;42.83;;;;;;;-2.42;100.00;99459.38;5052028;28;20083;-76
2022/01/19 07:06:45;;;;;;;104.20;41.13;;;;;;;-2.38;100.00;99450.78;5040921;28;20069;-75
2022/01/19 07:09:11;;;;;;;91.50;38.63;;;;;;;-2.31;100.00;99442.88;5031491;28;20032;-75
2022/01/19 07:11:37;;;;;;;96.60;39.30;;;;;;;-2.38;100.00;99450.78;5031426;28;20498;-74
2022/01/19 07:14:04;;;;;;;98.88;38.20;;;;;;;-2.54;100.00;99445.56;5031044;28;20025;-77
2022/01/19 07:16:29;;;;;;;113.15;38.05;;;;;;;-2.54;100.00;99440.19;5031072;28;20116;-76
2022/01/19 07:18:55;;;;;;;100.57;39.90;;;;;;;-2.43;100.00;99439.78;5029366;28;20737;-76
2022/01/19 07:21:20;;;;;;;103.25;37.53;;;;;;;-2.46;100.00;99450.00;5031303;28;20111;-74
2022/01/19 07:23:46;;;;;;;85.15;32.83;;;;;;;-2.37;100.00;99448.97;5029218;28;20032;-76
2022/01/19 07:26:11;;;;;;;76.68;34.97;;;;;;;-2.35;100.00;99447.75;5029399;28;20115;-74
2022/01/19 07:28:37;;;;;;;84.72;36.38;;;;;;;-2.18;100.00;99444.00;5030846;28;20025;-74
2022/01/19 07:31:02;;;;;;;83.45;34.08;;;;;;;-2.26;100.00;99432.50;5031345;28;20038;-74
2022/01/19 07:33:28;;;;;;;83.93;37.17;;;;;;;-2.23;100.00;99438.34;5030922;28;20036;-75
2022/01/19 07:35:54;;;;;;;103.38;35.28;;;;;;;-2.13;100.00;99438.09;5030894;28;20040;-76
2022/01/19 07:38:20;;;;;;;73.80;35.33;;;;;;;-2.17;100.00;99443.00;5031579;28;20034;-74
2022/01/19 07:40:45;;;;;;;94.03;34.63;;;;;;;-2.07;100.00;99444.59;5042011;28;20393;-75
2022/01/19 07:43:11;;;;;;;127.47;34.67;;;;;;;-2.64;100.00;99438.72;5049769;28;20025;-75
2022/01/19 07:45:37;;;;;;;130.55;34.85;;;;;;;-2.50;100.00;99441.50;5050176;28;20013;-75
2022/01/19 07:48:03;;;;;;;124.63;36.42;;;;;;;-2.40;100.00;99436.75;5049846;28;20025;-76
2022/01/19 07:50:28;;;;;;;107.20;36.28;;;;;;;-2.20;100.00;99432.63;5050330;28;20032;-76
2022/01/19 07:52:54;;;;;;;151.57;36.47;;;;;;;-2.25;100.00;99436.81;5050626;28;20028;-76
2022/01/19 07:55:19;;;;;;;110.65;36.63;;;;;;;-2.37;100.00;99431.03;5050325;28;20183;-76
2022/01/19 07:57:49;;;;;;;108.40;34.63;;;;;;;-2.29;100.00;99432.84;5050278;28;20021;-77
2022/01/19 08:00:15;;;;;;;88.78;35.45;;;;;;;-2.17;100.00;99431.44;5048847;28;20021;-75
2022/01/19 08:02:40;;;;;;;117.60;35.75;;;;;;;-2.06;100.00;99430.16;5048694;28;20032;-77
2022/01/19 08:05:08;;;;;;;117.53;34.67;;;;;;;-1.96;100.00;99441.50;5050230;28;20118;-73
2022/01/19 08:07:34;;;;;;;101.43;34.25;;;;;;;-1.95;100.00;99440.50;5050122;28;20478;-76
2022/01/19 08:10:01;;;;;;;108.00;35.67;;;;;;;-1.98;100.00;99439.00;5050215;28;20063;-74
2022/01/19 08:12:26;;;;;;;102.75;37.83;;;;;;;-1.87;100.00;99440.41;5049957;28;20032;-76
2022/01/19 08:14:52;;;;;;;83.68;34.53;;;;;;;-1.78;100.00;99431.28;5050529;28;20022;-75
2022/01/19 08:17:19;;;;;;;83.32;34.15;;;;;;;-1.68;100.00;99434.56;5050385;28;20485;-76
2022/01/19 08:19:44;;;;;;;87.80;36.80;;;;;;;-1.73;100.00;99439.66;5051708;28;20092;-75
2022/01/19 08:22:10;;;;;;;91.82;37.80;;;;;;;-1.70;100.00;99441.97;5057016;28;20035;-75
2022/01/19 08:24:35;;;;;;;105.07;37.13;;;;;;;-1.64;100.00;99438.56;5063228;28;20057;-77
2022/01/19 08:27:00;;;;;;;98.35;35.63;;;;;;;-1.52;100.00;99434.41;5055443;28;20036;-75
2022/01/19 08:29:26;;;;;;;92.35;35.22;;;;;;;-1.38;100.00;99430.91;5054451;28;20033;-77
2022/01/19 08:31:52;;;;;;;89.30;36.70;;;;;;;-1.29;100.00;99421.81;5052798;28;20103;-76
2022/01/19 08:34:17;;;;;;;121.28;38.72;;;;;;;-1.28;100.00;99428.81;5054107;28;20037;-76
2022/01/19 08:36:43;;;;;;;82.15;35.72;;;;;;;-1.27;100.00;99418.91;5053169;28;20052;-76
2022/01/19 08:39:09;;;;;;;95.13;34.53;;;;;;;-1.20;100.00;99415.31;5054652;28;20052;-77
2022/01/19 08:41:35;;;;;;;113.55;39.30;;;;;;;-1.29;100.00;99410.22;5053891;28;20493;-76
2022/01/19 08:44:00;;;;;;;98.63;33.88;;;;;;;-1.52;100.00;99407.59;5053905;28;20029;-76
2022/01/19 08:46:26;;;;;;;99.78;35.75;;;;;;;-1.74;100.00;99398.59;5053771;28;20020;-76
2022/01/19 08:48:51;;;;;;;122.78;41.95;;;;;;;-1.75;100.00;99398.75;5053699;28;20029;-76
2022/01/19 08:51:17;;;;;;;107.88;39.85;;;;;;;-1.55;100.00;99404.44;5054054;28;20536;-75
2022/01/19 08:53:42;;;;;;;100.85;38.05;;;;;;;-1.46;100.00;99392.63;5054022;28;20390;-75
2022/01/19 08:56:08;;;;;;;97.18;36.95;;;;;;;-1.46;100.00;99398.81;5053491;28;20033;-77
2022/01/19 08:58:33;;;;;;;87.45;35.42;;;;;;;-1.29;100.00;99394.97;5053638;28;20036;-76
2022/01/19 09:00:59;;;;;;;82.20;34.35;;;;;;;-1.28;100.00;99396.63;5053391;28;20566;-76
2022/01/19 09:03:24;;;;;;;86.72;37.35;;;;;;;-1.19;100.00;99397.38;5053451;28;20029;-76
2022/01/19 09:05:49;;;;;;;90.93;35.38;;;;;;;-0.59;100.00;99406.00;5053402;28;20009;-76
2022/01/19 09:08:15;;;;;;;85.97;36.05;;;;;;;-0.49;100.00;99400.34;5052033;28;20029;-74
2022/01/19 09:10:41;;;;;;;87.43;35.40;;;;;;;-0.73;100.00;99403.34;5053144;28;20054;-74
2022/01/19 09:13:07;;;;;;;99.70;36.63;;;;;;;-0.97;100.00;99393.75;5052572;28;20482;-75
2022/01/19 09:15:34;;;;;;;83.75;32.17;;;;;;;-0.90;100.00;99393.81;5052997;28;20029;-76
2022/01/19 09:17:59;;;;;;;96.20;32.30;;;;;;;-0.93;100.00;99394.19;5051816;28;20382;-75
2022/01/19 09:20:25;;;;;;;85.78;32.88;;;;;;;-0.93;100.00;99389.66;5051285;28;20481;-76
2022/01/19 09:22:50;;;;;;;85.50;33.83;;;;;;;-0.88;100.00;99389.97;5053375;28;20040;-76
2022/01/19 09:25:16;;;;;;;100.22;34.20;;;;;;;-0.92;100.00;99387.81;5053260;28;20036;-75
2022/01/19 09:27:41;;;;;;;112.70;33.58;;;;;;;-0.95;100.00;99390.88;5052991;28;20514;-74
2022/01/19 09:30:14;;;;;;;74.88;33.30;;;;;;;-0.87;100.00;99380.88;5051201;28;20044;-75
2022/01/19 09:32:41;;;;;;;78.47;34.90;;;;;;;-0.69;100.00;99388.53;5051019;28;20032;-76
2022/01/19 09:35:09;;;;;;;81.93;33.90;;;;;;;-0.67;100.00;99384.63;5053062;28;20044;-76
2022/01/19 09:37:37;;;;;;;83.70;35.03;;;;;;;-0.60;100.00;99384.72;5051572;28;20513;-76
2022/01/19 09:40:05;;;;;;;80.50;34.10;;;;;;;-0.52;100.00;99383.75;5052435;28;20033;-75
2022/01/19 09:42:30;;;;;;;80.10;34.90;;;;;;;-0.64;100.00;99389.63;5052327;28;20021;-75
2022/01/19 09:44:56;;;;;;;80.90;36.28;;;;;;;-0.68;100.00;99387.50;5052560;28;20029;-76
2022/01/19 09:47:21;;;;;;;84.47;37.15;;;;;;;-0.60;100.00;99377.50;5051143;28;21213;-75
2022/01/19 09:49:47;;;;;;;90.03;36.20;;;;;;;-0.78;100.00;99370.84;5044808;28;20473;-75
2022/01/19 09:52:12;;;;;;;88.03;38.53;;;;;;;-0.69;100.00;99364.38;5041806;28;20677;-76
2022/01/19 09:54:38;;;;;;;91.40;36.22;;;;;;;-0.50;100.00;99376.38;5050000;28;20052;-76
2022/01/19 09:57:03;;;;;;;90.68;37.95;;;;;;;-0.77;100.00;99365.28;5052127;28;20535;-76
2022/01/19 09:59:29;;;;;;;75.57;33.55;;;;;;;-0.60;100.00;99360.53;5053218;28;20033;-76
2022/01/19 10:02:03;;;;;;;84.70;36.33;;;;;;;-0.55;100.00;99360.81;5054063;28;20032;-77
2022/01/19 10:04:31;;;;;;;90.53;37.67;;;;;;;-0.29;100.00;99352.19;5047232;28;20033;-76
2022/01/19 10:07:29;;;;;;;83.70;38.65;;;;;;;-0.06;100.00;99345.59;5050755;28;20017;-76
2022/01/19 10:10:03;;;;;;;86.55;38.90;;;;;;;-0.04;100.00;99338.19;5036029;28;20044;-77
2022/01/19 10:18:16;;;;;;;88.00;39.78;;;;;;;-0.23;100.00;99316.47;5049000;28;20099;-76
2022/01/19 10:20:43;;;;;;;101.20;43.67;;;;;;;-0.28;100.00;99314.34;5045912;28;20182;-77
2022/01/19 10:23:41;;;;;;;100.60;44.85;;;;;;;-0.46;100.00;99316.66;5050493;28;20017;-74
2022/01/19 10:26:10;;;;;;;103.05;44.13;;;;;;;-0.39;100.00;99296.06;5048587;28;20059;-75
2022/01/19 10:29:08;;;;;;;101.80;42.85;;;;;;;-0.38;100.00;99289.69;5048914;28;20445;-77
2022/01/19 10:31:37;;;;;;;100.45;44.08;;;;;;;-0.41;100.00;99286.53;5042064;28;20025;-75
2022/01/19 10:34:17;;;;;;;107.30;45.35;;;;;;;-0.65;100.00;99285.88;5054734;28;20048;-77
2022/01/19 10:36:51;;;;;;;109.43;43.70;;;;;;;-0.64;100.00;99286.72;5049241;28;20021;-75
2022/01/19 10:39:19;;;;;;;105.35;47.38;;;;;;;-0.51;100.00;99270.75;5049996;28;20462;-75
2022/01/19 10:42:05;;;;;;;106.32;44.15;;;;;;;-0.18;100.00;99271.84;5042734;28;20072;-77
2022/01/19 10:44:38;;;;;;;;;;;;;;;0.15;100.00;99256.00;5049071;28;20025;-74
2022/01/19 10:47:04;;;;;;;104.57;44.25;;;;;;;0.28;100.00;99249.88;5047360;28;19916;-74
2022/01/19 10:49:54;;;;;;;106.65;46.33;;;;;;;0.51;100.00;99250.41;5049690;28;20013;-75
2022/01/19 10:52:30;;;;;;;113.22;45.17;;;;;;;0.54;100.00;99253.53;5049429;28;20413;-75
2022/01/19 10:54:57;;;;;;;95.25;44.97;;;;;;;0.80;100.00;99250.13;5048082;28;20037;-76
2022/01/19 10:57:24;;;;;;;94.47;41.47;;;;;;;0.92;100.00;99235.06;5049603;28;20021;-76
2022/01/19 10:59:50;;;;;;;95.85;42.78;;;;;;;0.84;100.00;99229.84;5047753;28;20029;-75
2022/01/19 11:02:17;;;;;;;100.50;44.53;;;;;;;0.92;100.00;99221.59;5049167;28;20021;-76
2022/01/19 11:04:42;;;;;;;98.63;43.38;;;;;;;0.86;100.00;99217.00;5050699;28;20025;-75
2022/01/19 11:07:12;;;;;;;92.95;42.90;;;;;;;0.69;100.00;99209.50;5049982;28;20393;-75
2022/01/19 11:10:08;;;;;;;104.32;44.80;;;;;;;0.74;100.00;99212.41;5049147;28;20112;-73
2022/01/19 11:12:35;;;;;;;108.03;49.90;;;;;;;0.52;100.00;99195.56;5048344;28;20033;-76
2022/01/19 11:15:00;;;;;;;117.13;47.92;;;;;;;0.39;100.00;99187.41;5047659;28;20016;-74
2022/01/19 11:17:25;;;;;;;107.85;48.42;;;;;;;0.21;100.00;99176.34;5050420;28;20017;-75
2022/01/19 11:19:52;;;;;;;110.63;47.63;;;;;;;0.23;100.00;99175.13;5048832;28;20485;-76
2022/01/19 11:22:23;;;;;;;110.25;47.63;;;;;;;0.41;100.00;99169.19;5049675;28;20110;-75
2022/01/19 11:25:20;;;;;;;97.18;45.78;;;;;;;0.74;100.00;99164.78;5049723;28;20041;-77
2022/01/19 11:27:47;;;;;;;104.45;48.97;;;;;;;0.60;100.00;99160.38;5043839;28;20390;-77
2022/01/19 11:30:25;;;;;;;102.85;46.92;;;;;;;0.82;100.00;99142.22;5049994;28;20025;-77
2022/01/19 11:33:12;;;;;;;105.28;49.03;;;;;;;0.99;100.00;99136.25;5049028;28;20021;-77
2022/01/19 11:35:38;;;;;;;101.38;44.42;;;;;;;0.90;100.00;99131.28;5048046;28;20029;-76
2022/01/19 11:38:43;;;;;;;109.22;49.80;;;;;;;1.11;100.00;99116.78;5047610;28;20020;-76
2022/01/19 11:41:08;;;;;;;105.70;48.10;;;;;;;0.93;100.00;99114.69;5046088;28;20079;-76
2022/01/19 11:43:36;;;;;;;114.22;50.00;;;;;;;0.87;100.00;99110.97;5048770;28;20026;-76
2022/01/19 11:46:03;;;;;;;99.38;46.58;;;;;;;0.81;100.00;99105.56;5048278;28;20385;-76
2022/01/19 11:48:37;;;;;;;122.05;54.85;;;;;;;0.76;100.00;99094.56;5048445;28;20470;-75
2022/01/19 11:51:42;;;;;;;121.72;54.03;;;;;;;0.85;100.00;99090.66;5049195;28;20105;-73
2022/01/19 11:54:28;;;;;;;109.32;49.45;;;;;;;1.08;100.00;99081.16;5049626;28;20486;-75
2022/01/19 11:56:59;;;;;;;113.30;48.28;;;;;;;1.41;100.00;99074.94;5053751;28;20041;-73
2022/01/19 11:59:34;;;;;;;116.80;50.85;;;;;;;1.26;100.00;99074.28;5052557;28;20510;-77
2022/01/19 12:02:24;;;;;;;116.90;50.40;;;;;;;0.91;100.00;99069.09;5054912;28;20587;-75
2022/01/19 12:04:58;;;;;;;123.18;51.80;;;;;;;0.90;100.00;99059.41;5048380;28;20032;-76
2022/01/19 12:07:45;;;;;;;128.27;57.10;;;;;;;0.95;100.00;99053.38;5042131;28;20555;-75
2022/01/19 12:10:14;;;;;;;129.93;53.42;;;;;;;0.84;100.00;99046.75;5034286;28;20045;-75
2022/01/19 12:12:53;;;;;;;125.50;54.67;;;;;;;0.93;100.00;99042.00;5035012;28;20457;-79
2022/01/19 12:15:58;;;;;;;130.90;57.38;;;;;;;0.89;100.00;99028.09;5048257;28;20030;-76
2022/01/19 12:18:49;;;;;;;127.95;54.47;;;;;;;0.90;100.00;99027.09;5044873;28;20036;-77
2022/01/19 12:21:21;;;;;;;139.27;57.60;;;;;;;0.75;100.00;99012.16;5032832;28;20041;-78
2022/01/19 12:23:49;;;;;;;144.13;58.55;;;;;;;0.78;100.00;99009.91;5033487;28;20024;-76
2022/01/19 12:26:15;;;;;;;129.35;57.95;;;;;;;0.86;100.00;99009.66;5049266;28;20028;-76
2022/01/19 12:28:51;;;;;;;140.32;56.67;;;;;;;0.93;100.00;99004.28;5034497;28;20052;-76
2022/01/19 12:31:26;;;;;;;134.30;56.60;;;;;;;1.00;100.00;98994.34;5033481;28;20026;-76
2022/01/19 12:34:07;;;;;;;144.27;60.08;;;;;;;0.82;100.00;98986.88;5031419;28;20033;-76
2022/01/19 12:36:52;;;;;;;149.90;61.95;;;;;;;0.58;100.00;98981.28;5040579;28;20371;-78
2022/01/19 12:39:27;;;;;;;145.33;61.33;;;;;;;0.70;100.00;98985.84;5056256;28;20098;-74